createdAt,value
2023-05-14T00:01:16.674Z,101103.63
2023-05-14T00:03:43.635Z,101098.75
2023-05-14T00:06:11.133Z,101111.94
2023-05-14T00:08:37.724Z,101103.13
2023-05-14T00:11:04.680Z,101099.94
2023-05-14T00:13:31.238Z,101087.22
2023-05-14T00:15:57.823Z,101087.53
2023-05-14T00:18:24.853Z,101079.81
2023-05-14T00:20:54.599Z,101087.53
2023-05-14T00:23:22.058Z,101078.25
2023-05-14T00:25:49.050Z,101074.03
2023-05-14T00:28:15.919Z,101072.44
2023-05-14T00:30:42.452Z,101069.63
2023-05-14T00:33:09.144Z,101067.41
2023-05-14T00:35:35.833Z,101070.31
2023-05-14T00:38:03.750Z,101058.78
2023-05-14T00:40:30.411Z,101064.25
2023-05-14T00:42:57.801Z,101051.66
2023-05-14T00:45:25.633Z,101052.84
2023-05-14T00:47:53.927Z,101060.09
2023-05-14T00:50:21.430Z,101052.00
2023-05-14T00:52:49.009Z,101060.81
2023-05-14T00:55:17.209Z,101059.63
2023-05-14T00:57:44.548Z,101055.03
2023-05-14T01:00:12.075Z,101058.00
2023-05-14T01:02:38.909Z,101056.28
2023-05-14T01:05:06.266Z,101076.94
2023-05-14T01:07:44.995Z,101066.31
2023-05-14T01:10:24.775Z,101079.28
2023-05-14T01:13:18.285Z,101069.41
2023-05-14T01:15:47.282Z,101074.03
2023-05-14T01:18:18.054Z,101067.41
2023-05-14T01:20:45.520Z,101071.56
2023-05-14T01:23:12.109Z,101073.53
2023-05-14T01:25:39.358Z,101070.47
2023-05-14T01:28:19.357Z,101070.28
2023-05-14T01:30:57.219Z,101071.22
2023-05-14T01:33:27.759Z,101071.91
2023-05-14T01:35:55.696Z,101068.47
2023-05-14T01:38:24.151Z,101060.09
2023-05-14T01:40:51.614Z,101064.69
2023-05-14T01:43:19.017Z,101058.28
2023-05-14T01:45:46.108Z,101062.41
2023-05-14T01:48:12.850Z,101071.38
2023-05-14T01:50:39.474Z,101068.81
2023-05-14T01:53:06.405Z,101060.91
2023-05-14T01:55:32.970Z,101060.84
2023-05-14T01:57:59.773Z,101064.84
2023-05-14T02:00:27.116Z,101059.84
2023-05-14T02:02:54.259Z,101060.81
2023-05-14T02:05:23.048Z,101065.44
2023-05-14T02:07:49.754Z,101060.38
2023-05-14T02:10:16.289Z,101054.97
2023-05-14T02:12:42.938Z,101064.03
2023-05-14T02:15:11.012Z,101056.66
2023-05-14T02:17:38.103Z,101057.47
2023-05-14T02:20:05.625Z,101061.38
2023-05-14T02:22:45.487Z,101055.66
2023-05-14T02:25:12.493Z,101053.81
2023-05-14T02:27:39.052Z,101054.00
2023-05-14T02:30:06.130Z,101052.53
2023-05-14T02:32:33.426Z,101047.75
2023-05-14T02:35:00.121Z,101044.84
2023-05-14T02:37:26.894Z,101036.38
2023-05-14T02:39:53.944Z,101043.38
2023-05-14T02:42:22.628Z,101046.44
2023-05-14T02:44:49.301Z,101045.94
2023-05-14T02:47:16.023Z,101045.78
2023-05-14T02:49:42.532Z,101043.03
2023-05-14T02:52:09.052Z,101036.94
2023-05-14T02:54:35.916Z,101038.47
2023-05-14T02:57:02.593Z,101034.94
2023-05-14T02:59:29.758Z,101033.72
2023-05-14T03:01:58.060Z,101028.56
2023-05-14T03:04:25.010Z,101028.81
2023-05-14T03:06:51.556Z,101026.91
2023-05-14T03:09:18.106Z,101027.06
2023-05-14T03:11:44.681Z,101020.63
2023-05-14T03:14:11.299Z,101020.63
2023-05-14T03:16:38.349Z,101020.81
2023-05-14T03:19:04.947Z,101021.97
2023-05-14T03:21:32.113Z,101026.28
2023-05-14T03:23:58.718Z,101022.44
2023-05-14T03:26:25.700Z,101022.69
2023-05-14T03:28:52.808Z,101019.28
2023-05-14T03:31:19.367Z,101023.00
2023-05-14T03:33:45.969Z,101020.59
2023-05-14T03:36:12.474Z,101018.50
2023-05-14T03:38:39.693Z,101015.56
2023-05-14T03:41:06.303Z,101023.44
2023-05-14T03:43:32.826Z,101018.44
2023-05-14T03:46:00.148Z,101022.19
2023-05-14T03:48:27.103Z,101019.47
2023-05-14T03:50:53.811Z,101011.97
2023-05-14T03:53:20.796Z,101019.94
2023-05-14T03:55:47.418Z,101010.88
2023-05-14T03:58:14.429Z,101017.13
2023-05-14T04:00:44.203Z,101024.28
2023-05-14T04:03:11.729Z,101013.91
2023-05-14T04:05:38.401Z,101021.16
2023-05-14T04:08:05.846Z,101022.78
2023-05-14T04:10:32.810Z,101024.41
2023-05-14T04:13:00.485Z,101023.72
2023-05-14T04:15:31.548Z,101025.66
2023-05-14T04:17:58.141Z,101023.94
2023-05-14T04:20:24.954Z,101022.75
2023-05-14T04:22:51.714Z,101024.44
2023-05-14T04:25:18.528Z,101021.72
2023-05-14T04:27:45.403Z,101028.63
2023-05-14T04:30:12.475Z,101015.97
2023-05-14T04:32:39.225Z,101026.81
2023-05-14T04:35:06.634Z,101026.41
2023-05-14T04:37:33.215Z,101018.22
2023-05-14T04:39:59.808Z,101018.47
2023-05-14T04:42:26.421Z,101022.81
2023-05-14T04:44:53.021Z,101026.53
2023-05-14T04:47:21.045Z,101021.47
2023-05-14T04:49:47.894Z,101023.72
2023-05-14T04:52:14.553Z,101027.72
2023-05-14T04:54:41.570Z,101026.91
2023-05-14T04:57:08.146Z,101026.97
2023-05-14T04:59:34.750Z,101027.34
2023-05-14T05:02:01.575Z,101024.03
2023-05-14T05:04:28.133Z,101028.34
2023-05-14T05:06:54.687Z,101022.53
2023-05-14T05:09:21.201Z,101023.00
2023-05-14T05:11:47.722Z,101022.41
2023-05-14T05:14:14.268Z,101026.13
2023-05-14T05:16:41.109Z,101027.72
2023-05-14T05:19:07.728Z,101025.91
2023-05-14T05:21:35.102Z,101048.63
2023-05-14T05:24:01.966Z,101054.50
2023-05-14T05:26:28.852Z,101064.16
2023-05-14T05:28:55.488Z,101069.56
2023-05-14T05:31:22.127Z,101074.56
2023-05-14T05:33:48.847Z,101075.69
2023-05-14T05:36:15.481Z,101081.88
2023-05-14T05:38:42.379Z,101086.31
2023-05-14T05:41:09.429Z,101087.06
2023-05-14T05:43:35.945Z,101086.06
2023-05-14T05:46:02.478Z,101090.78
2023-05-14T05:48:29.058Z,101094.34
2023-05-14T05:50:55.768Z,101096.19
2023-05-14T05:53:24.918Z,101088.19
2023-05-14T05:55:51.663Z,101079.13
2023-05-14T05:58:19.073Z,101083.75
2023-05-14T06:00:47.029Z,101092.69
2023-05-14T06:03:14.771Z,101092.38
2023-05-14T06:05:42.029Z,101102.22
2023-05-14T06:08:08.670Z,101104.06
2023-05-14T06:10:36.266Z,101093.47
2023-05-14T06:13:03.024Z,101097.63
2023-05-14T06:15:29.565Z,101088.03
2023-05-14T06:17:56.173Z,101083.81
2023-05-14T06:20:23.105Z,101083.09
2023-05-14T06:22:49.883Z,101084.56
2023-05-14T06:25:16.490Z,101090.94
2023-05-14T06:27:43.548Z,101089.56
2023-05-14T06:30:11.251Z,101094.34
2023-05-14T06:32:37.905Z,101089.44
2023-05-14T06:35:05.115Z,101094.72
2023-05-14T06:37:31.791Z,101088.50
2023-05-14T06:39:58.696Z,101079.59
2023-05-14T06:42:26.338Z,101084.63
2023-05-14T06:44:52.908Z,101069.63
2023-05-14T06:47:19.447Z,101077.25
2023-05-14T06:49:46.792Z,101075.09
2023-05-14T06:52:13.585Z,101077.91
2023-05-14T06:54:40.137Z,101083.78
2023-05-14T06:57:06.795Z,101077.47
2023-05-14T06:59:33.575Z,101076.53
2023-05-14T07:02:00.159Z,101079.56
2023-05-14T07:04:26.825Z,101062.22
2023-05-14T07:06:53.433Z,101062.50
2023-05-14T07:09:19.981Z,101062.34
2023-05-14T07:11:46.519Z,101065.09
2023-05-14T07:14:13.070Z,101061.72
2023-05-14T07:16:40.219Z,101055.41
2023-05-14T07:19:06.886Z,101055.81
2023-05-14T07:21:33.521Z,101043.03
2023-05-14T07:24:01.107Z,101046.00
2023-05-14T07:26:27.640Z,101038.31
2023-05-14T07:28:54.224Z,101028.81
2023-05-14T07:31:20.815Z,101040.25
2023-05-14T07:33:47.878Z,101031.81
2023-05-14T07:36:14.482Z,101028.38
2023-05-14T07:38:41.548Z,101020.84
2023-05-14T07:41:08.055Z,101022.19
2023-05-14T07:43:34.595Z,101016.97
2023-05-14T07:46:01.107Z,101014.63
2023-05-14T07:48:27.718Z,101006.09
2023-05-14T07:50:54.733Z,101017.09
2023-05-14T07:53:21.947Z,101006.78
2023-05-14T07:55:48.775Z,100999.88
2023-05-14T07:58:16.077Z,100996.59
2023-05-14T08:00:42.598Z,101003.34
2023-05-14T08:03:09.238Z,100988.56
2023-05-14T08:05:35.904Z,100998.72
2023-05-14T08:08:02.655Z,100986.69
2023-05-14T08:10:29.663Z,100996.16
2023-05-14T08:12:56.282Z,101005.53
2023-05-14T08:15:24.582Z,101005.66
2023-05-14T08:17:52.996Z,101010.78
2023-05-14T08:20:19.498Z,100997.00
2023-05-14T08:22:46.918Z,100986.38
2023-05-14T08:25:13.615Z,100977.94
2023-05-14T08:27:40.216Z,100965.75
2023-05-14T08:30:07.280Z,100975.72
2023-05-14T08:32:33.952Z,100968.25
2023-05-14T08:35:00.644Z,100970.13
2023-05-14T08:37:27.342Z,100972.66
2023-05-14T08:39:53.842Z,100976.44
2023-05-14T08:42:21.999Z,100984.75
2023-05-14T08:44:53.130Z,100987.63
2023-05-14T08:47:22.328Z,100972.34
2023-05-14T08:49:54.759Z,100965.38
2023-05-14T08:52:23.122Z,100968.81
2023-05-14T08:54:52.681Z,100963.75
2023-05-14T08:57:20.903Z,100967.41
2023-05-14T08:59:48.750Z,100967.66
2023-05-14T09:02:17.385Z,100960.03
2023-05-14T09:04:44.815Z,100958.56
2023-05-14T09:07:11.721Z,100963.00
2023-05-14T09:09:38.621Z,100951.63
2023-05-14T09:12:06.175Z,100965.13
2023-05-14T09:14:33.283Z,100947.91
2023-05-14T09:16:59.912Z,100946.41
2023-05-14T09:19:26.898Z,100941.78
2023-05-14T09:21:57.816Z,100944.84
2023-05-14T09:24:31.548Z,100935.28
2023-05-14T09:26:58.856Z,100940.16
2023-05-14T09:29:30.152Z,100948.63
2023-05-14T09:31:58.391Z,100947.97
2023-05-14T09:34:26.116Z,100938.25
2023-05-14T09:37:03.718Z,100946.91
2023-05-14T09:39:31.099Z,100942.00
2023-05-14T09:41:57.784Z,100941.72
2023-05-14T09:44:25.247Z,100940.06
2023-05-14T09:46:53.713Z,100942.16
2023-05-14T09:49:21.025Z,100943.97
2023-05-14T09:51:49.174Z,100942.72
2023-05-14T09:54:16.526Z,100946.78
2023-05-14T09:56:43.908Z,100938.28
2023-05-14T09:59:10.870Z,100938.81
2023-05-14T10:01:38.321Z,100938.72
2023-05-14T10:04:07.674Z,100928.84
2023-05-14T10:06:38.102Z,100935.16
2023-05-14T10:09:09.685Z,100932.53
2023-05-14T10:11:38.423Z,100931.13
2023-05-14T10:14:18.234Z,100927.78
2023-05-14T10:16:50.877Z,100922.31
2023-05-14T10:19:19.958Z,100914.94
2023-05-14T10:21:55.649Z,100914.78
2023-05-14T10:24:24.313Z,100910.78
2023-05-14T10:26:51.510Z,100905.13
2023-05-14T10:29:18.045Z,100911.91
2023-05-14T10:31:47.203Z,100900.59
2023-05-14T10:34:46.217Z,100899.59
2023-05-14T10:37:15.519Z,100899.63
2023-05-14T10:39:43.215Z,100900.53
2023-05-14T10:42:16.427Z,100889.72
2023-05-14T10:44:48.408Z,100897.50
2023-05-14T10:47:17.080Z,100901.47
2023-05-14T10:49:45.748Z,100905.28
2023-05-14T10:52:12.428Z,100904.41
2023-05-14T10:54:39.638Z,100900.63
2023-05-14T10:57:11.508Z,100895.63
2023-05-14T10:59:41.783Z,100884.16
2023-05-14T11:02:19.638Z,100880.13
2023-05-14T11:04:54.423Z,100875.31
2023-05-14T11:07:25.285Z,100864.81
2023-05-14T11:09:53.220Z,100875.78
2023-05-14T11:12:21.268Z,100862.06
2023-05-14T11:14:47.857Z,100862.31
2023-05-14T11:17:15.051Z,100866.00
2023-05-14T11:19:43.789Z,100865.19
2023-05-14T11:22:13.558Z,100867.38
2023-05-14T11:24:40.883Z,100857.19
2023-05-14T11:27:09.211Z,100845.00
2023-05-14T11:29:36.780Z,100850.72
2023-05-14T11:32:06.271Z,100842.34
2023-05-14T11:34:34.616Z,100836.44
2023-05-14T11:37:06.824Z,100850.47
2023-05-14T11:39:36.238Z,100841.84
2023-05-14T11:42:04.717Z,100832.34
2023-05-14T11:44:32.607Z,100839.84
2023-05-14T11:46:59.420Z,100834.31
2023-05-14T11:49:31.706Z,100832.94
2023-05-14T11:51:59.441Z,100840.25
2023-05-14T11:54:29.832Z,100820.91
2023-05-14T11:56:57.504Z,100836.63
2023-05-14T11:59:27.850Z,100827.28
2023-05-14T12:01:55.951Z,100826.53
2023-05-14T12:04:22.914Z,100836.72
2023-05-14T12:06:50.819Z,100827.69
2023-05-14T12:09:21.217Z,100814.59
2023-05-14T12:11:49.026Z,100826.22
2023-05-14T12:14:17.371Z,100825.22
2023-05-14T12:16:45.254Z,100816.53
2023-05-14T12:19:15.234Z,100808.25
2023-05-14T12:21:47.632Z,100794.38
2023-05-14T12:24:17.745Z,100788.16
2023-05-14T12:26:49.462Z,100782.81
2023-05-14T12:29:16.795Z,100791.38
2023-05-14T12:31:48.249Z,100792.13
2023-05-14T12:34:15.917Z,100792.47
2023-05-14T12:36:43.373Z,100795.28
2023-05-14T12:39:11.066Z,100789.63
2023-05-14T12:41:37.740Z,100783.63
2023-05-14T12:44:05.249Z,100783.38
2023-05-14T12:46:33.102Z,100786.72
2023-05-14T12:48:59.778Z,100788.47
2023-05-14T12:51:26.472Z,100785.31
2023-05-14T12:53:54.187Z,100789.78
2023-05-14T12:56:21.384Z,100779.56
2023-05-14T12:58:48.170Z,100773.06
2023-05-14T13:01:14.848Z,100765.78
2023-05-14T13:03:41.595Z,100757.69
2023-05-14T13:06:08.235Z,100753.38
2023-05-14T13:08:35.315Z,100749.59
2023-05-14T13:11:01.932Z,100749.41
2023-05-14T13:13:28.621Z,100749.09
2023-05-14T13:15:55.499Z,100754.63
2023-05-14T13:18:22.271Z,100747.31
2023-05-14T13:20:49.004Z,100731.22
2023-05-14T13:23:16.081Z,100742.66
2023-05-14T13:25:42.610Z,100735.91
2023-05-14T13:28:09.620Z,100733.09
2023-05-14T13:30:36.319Z,100740.31
2023-05-14T13:33:03.115Z,100744.63
2023-05-14T13:35:29.801Z,100742.38
2023-05-14T13:37:56.883Z,100740.84
2023-05-14T13:40:23.589Z,100748.28
2023-05-14T13:42:50.269Z,100746.19
2023-05-14T13:45:17.007Z,100736.22
2023-05-14T13:47:44.346Z,100739.50
2023-05-14T13:50:10.987Z,100738.41
2023-05-14T13:52:38.945Z,100738.69
2023-05-14T13:55:06.556Z,100733.06
2023-05-14T13:57:33.278Z,100730.28
2023-05-14T14:00:01.195Z,100732.97
2023-05-14T14:02:33.536Z,100723.19
2023-05-14T14:05:01.165Z,100727.34
2023-05-14T14:07:28.067Z,100720.31
2023-05-14T14:09:54.806Z,100726.03
2023-05-14T14:12:21.580Z,100715.88
2023-05-14T14:14:48.293Z,100718.47
2023-05-14T14:17:14.987Z,100714.84
2023-05-14T14:19:41.650Z,100707.13
2023-05-14T14:22:08.340Z,100702.13
2023-05-14T14:24:35.456Z,100694.31
2023-05-14T14:27:02.328Z,100702.59
2023-05-14T14:29:31.015Z,100692.94
2023-05-14T14:31:57.752Z,100696.84
2023-05-14T14:34:24.911Z,100693.88
2023-05-14T14:36:51.553Z,100690.38
2023-05-14T14:39:18.723Z,100687.41
2023-05-14T14:41:45.507Z,100685.25
2023-05-14T14:44:12.232Z,100679.53
2023-05-14T14:46:38.992Z,100672.63
2023-05-14T14:49:05.744Z,100667.13
2023-05-14T14:51:33.004Z,100671.88
2023-05-14T14:54:00.142Z,100669.28
2023-05-14T14:56:27.231Z,100670.91
2023-05-14T14:58:53.989Z,100668.13
2023-05-14T15:01:22.699Z,100669.66
2023-05-14T15:03:50.885Z,100671.47
2023-05-14T15:06:17.597Z,100666.63
2023-05-14T15:08:44.368Z,100677.81
2023-05-14T15:11:14.109Z,100679.16
2023-05-14T15:13:41.938Z,100681.47
2023-05-14T15:16:08.886Z,100669.25
2023-05-14T15:18:35.671Z,100658.03
2023-05-14T15:21:02.376Z,100649.38
2023-05-14T15:23:29.050Z,100653.38
2023-05-14T15:25:56.196Z,100652.44
2023-05-14T15:28:22.903Z,100649.13
2023-05-14T15:30:49.596Z,100647.16
2023-05-14T15:33:19.462Z,100638.09
2023-05-14T15:35:46.369Z,100648.84
2023-05-14T15:38:13.080Z,100650.31
2023-05-14T15:40:41.155Z,100645.22
2023-05-14T15:43:07.907Z,100650.72
2023-05-14T15:45:34.560Z,100646.50
2023-05-14T15:48:01.397Z,100647.63
2023-05-14T15:50:28.288Z,100644.44
2023-05-14T15:52:54.985Z,100639.56
2023-05-14T15:55:21.725Z,100645.09
2023-05-14T15:57:48.514Z,100638.97
2023-05-14T16:00:16.286Z,100640.81
2023-05-14T16:02:43.426Z,100639.44
2023-05-14T16:05:10.295Z,100640.19
2023-05-14T16:07:37.402Z,100632.78
2023-05-14T16:10:04.851Z,100636.13
2023-05-14T16:12:31.760Z,100632.53
2023-05-14T16:14:58.713Z,100632.75
2023-05-14T16:17:27.718Z,100627.75
2023-05-14T16:19:56.336Z,100630.03
2023-05-14T16:22:23.372Z,100622.28
2023-05-14T16:24:50.070Z,100632.84
2023-05-14T16:27:19.010Z,100628.16
2023-05-14T16:29:46.155Z,100625.03
2023-05-14T16:32:13.001Z,100622.34
2023-05-14T16:34:39.772Z,100626.72
2023-05-14T16:37:06.839Z,100621.75
2023-05-14T16:39:33.511Z,100613.13
2023-05-14T16:42:00.185Z,100617.50
2023-05-14T16:44:28.042Z,100616.81
2023-05-14T16:47:24.044Z,100612.28
2023-05-14T16:49:50.901Z,100602.91
2023-05-14T16:52:17.630Z,100609.75
2023-05-14T16:54:44.269Z,100609.00
2023-05-14T16:57:11.302Z,100606.53
2023-05-14T16:59:38.323Z,100602.16
2023-05-14T17:02:04.984Z,100596.63
2023-05-14T17:04:33.318Z,100603.69
2023-05-14T17:07:01.384Z,100606.09
2023-05-14T17:09:28.065Z,100598.91
2023-05-14T17:11:54.790Z,100603.81
2023-05-14T17:14:22.033Z,100607.09
2023-05-14T17:16:48.761Z,100600.25
2023-05-14T17:19:15.688Z,100594.03
2023-05-14T17:21:42.972Z,100601.50
2023-05-14T17:24:10.211Z,100601.59
2023-05-14T17:26:37.730Z,100593.25
2023-05-14T17:29:04.865Z,100590.38
2023-05-14T17:31:31.552Z,100584.63
2023-05-14T17:33:58.830Z,100583.19
2023-05-14T17:36:25.813Z,100582.63
2023-05-14T17:38:52.534Z,100582.34
2023-05-14T17:41:19.720Z,100590.38
2023-05-14T17:43:47.051Z,100592.28
2023-05-14T17:46:14.036Z,100587.75
2023-05-14T17:48:40.812Z,100594.78
2023-05-14T17:51:07.917Z,100593.94
2023-05-14T17:53:34.611Z,100592.44
2023-05-14T17:56:01.487Z,100604.00
2023-05-14T17:58:28.549Z,100597.03
2023-05-14T18:00:55.547Z,100592.53
2023-05-14T18:03:22.387Z,100599.75
2023-05-14T18:05:49.205Z,100599.16
2023-05-14T18:08:15.903Z,100599.59
2023-05-14T18:10:42.929Z,100602.56
2023-05-14T18:13:10.032Z,100596.75
2023-05-14T18:15:36.838Z,100596.56
2023-05-14T18:18:03.896Z,100605.75
2023-05-14T18:20:31.175Z,100600.22
2023-05-14T18:22:59.120Z,100602.09
2023-05-14T18:25:26.233Z,100596.78
2023-05-14T18:27:53.817Z,100598.59
2023-05-14T18:30:20.607Z,100606.22
2023-05-14T18:32:47.482Z,100596.00
2023-05-14T18:35:14.628Z,100596.63
2023-05-14T18:37:41.729Z,100599.72
2023-05-14T18:40:09.254Z,100604.16
2023-05-14T18:42:35.957Z,100610.50
2023-05-14T18:45:04.029Z,100605.72
2023-05-14T18:47:32.586Z,100601.94
2023-05-14T18:50:01.619Z,100603.63
2023-05-14T18:52:28.704Z,100603.28
2023-05-14T18:54:55.670Z,100596.75
2023-05-14T18:57:22.506Z,100605.16
2023-05-14T18:59:49.703Z,100604.47
2023-05-14T19:02:16.587Z,100606.13
2023-05-14T19:04:52.338Z,100596.63
2023-05-14T19:07:20.866Z,100603.63
2023-05-14T19:09:48.049Z,100610.66
2023-05-14T19:12:14.870Z,100605.75
2023-05-14T19:14:42.002Z,100614.53
2023-05-14T19:17:08.713Z,100606.81
2023-05-14T19:19:36.540Z,100612.13
2023-05-14T19:22:03.709Z,100616.44
2023-05-14T19:24:30.839Z,100617.19
2023-05-14T19:26:57.713Z,100619.28
2023-05-14T19:29:30.158Z,100616.13
2023-05-14T19:31:57.001Z,100611.34
2023-05-14T19:34:23.797Z,100602.53
2023-05-14T19:36:50.736Z,100602.28
2023-05-14T19:39:17.425Z,100600.81
2023-05-14T19:41:44.198Z,100608.81
2023-05-14T19:44:11.082Z,100599.22
2023-05-14T19:46:37.926Z,100602.78
2023-05-14T19:49:04.965Z,100595.28
2023-05-14T19:51:31.691Z,100592.44
2023-05-14T19:53:58.381Z,100596.88
2023-05-14T19:56:27.135Z,100596.16
2023-05-14T19:58:54.263Z,100595.59
2023-05-14T20:01:21.116Z,100595.31
2023-05-14T20:03:48.129Z,100599.78
2023-05-14T20:06:14.870Z,100595.53
2023-05-14T20:08:41.785Z,100593.06
2023-05-14T20:11:08.446Z,100594.19
2023-05-14T20:13:36.405Z,100591.50
2023-05-14T20:16:03.322Z,100595.63
2023-05-14T20:18:30.160Z,100596.38
2023-05-14T20:20:57.182Z,100595.91
2023-05-14T20:23:24.039Z,100600.03
2023-05-14T20:25:51.575Z,100587.56
2023-05-14T20:28:18.280Z,100592.38
2023-05-14T20:30:45.074Z,100586.50
2023-05-14T20:33:13.317Z,100587.03
2023-05-14T20:35:43.714Z,100588.16
2023-05-14T20:38:12.545Z,100587.53
2023-05-14T20:40:39.711Z,100574.16
2023-05-14T20:43:06.512Z,100582.81
2023-05-14T20:45:34.988Z,100580.94
2023-05-14T20:48:01.881Z,100588.00
2023-05-14T20:50:28.715Z,100581.13
2023-05-14T20:52:55.581Z,100578.56
2023-05-14T20:55:22.343Z,100573.84
2023-05-14T20:57:49.638Z,100577.94
2023-05-14T21:00:16.731Z,100569.22
2023-05-14T21:02:43.580Z,100567.84
2023-05-14T21:05:10.980Z,100560.19
2023-05-14T21:07:39.246Z,100570.13
2023-05-14T21:10:07.675Z,100565.19
2023-05-14T21:12:34.218Z,100559.16
2023-05-14T21:15:00.764Z,100554.72
2023-05-14T21:17:27.735Z,100552.41
2023-05-14T21:19:54.310Z,100550.88
2023-05-14T21:22:22.015Z,100557.19
2023-05-14T21:24:50.315Z,100547.00
2023-05-14T21:27:16.993Z,100550.75
2023-05-14T21:29:46.171Z,100553.34
2023-05-14T21:32:13.100Z,100542.44
2023-05-14T21:34:39.694Z,100547.53
2023-05-14T21:37:06.741Z,100543.44
2023-05-14T21:39:33.298Z,100538.50
2023-05-14T21:41:59.841Z,100537.78
2023-05-14T21:44:26.404Z,100527.13
2023-05-14T21:46:52.963Z,100527.63
2023-05-14T21:49:19.510Z,100526.72
2023-05-14T21:51:46.621Z,100531.69
2023-05-14T21:54:14.002Z,100535.91
2023-05-14T21:56:40.735Z,100522.91
2023-05-14T21:59:07.291Z,100520.22
2023-05-14T22:01:38.575Z,100526.00
2023-05-14T22:04:12.608Z,100518.41
2023-05-14T22:06:39.410Z,100516.28
2023-05-14T22:09:05.998Z,100511.69
2023-05-14T22:11:32.560Z,100519.25
2023-05-14T22:13:59.085Z,100509.75
2023-05-14T22:16:26.786Z,100506.97
2023-05-14T22:18:53.942Z,100504.66
2023-05-14T22:21:20.620Z,100504.41
2023-05-14T22:23:47.913Z,100507.47
2023-05-14T22:26:14.528Z,100509.78
2023-05-14T22:28:42.918Z,100505.63
2023-05-14T22:31:10.369Z,100509.31
2023-05-14T22:33:36.947Z,100509.06
2023-05-14T22:36:04.170Z,100501.13
2023-05-14T22:38:30.735Z,100501.47
2023-05-14T22:40:57.288Z,100509.25
2023-05-14T22:43:23.890Z,100502.28
2023-05-14T22:45:50.765Z,100492.00
2023-05-14T22:48:17.764Z,100495.50
2023-05-14T22:50:44.610Z,100491.50
2023-05-14T22:53:11.171Z,100491.84
2023-05-14T22:55:38.210Z,100478.66
2023-05-14T22:58:05.519Z,100485.56
2023-05-14T23:00:32.055Z,100482.81
2023-05-14T23:02:58.706Z,100486.47
2023-05-14T23:05:25.801Z,100485.22
2023-05-14T23:07:53.663Z,100474.63
2023-05-14T23:10:20.227Z,100473.09
2023-05-14T23:12:47.558Z,100470.66
2023-05-14T23:15:14.206Z,100476.44
2023-05-14T23:17:40.766Z,100466.38
2023-05-14T23:20:10.594Z,100467.56
2023-05-14T23:22:37.112Z,100457.34
2023-05-14T23:25:04.286Z,100456.75
2023-05-14T23:27:31.058Z,100452.13
2023-05-14T23:29:57.614Z,100454.16
2023-05-14T23:32:24.210Z,100451.88
2023-05-14T23:34:51.037Z,100442.97
2023-05-14T23:37:17.932Z,100447.25
2023-05-14T23:39:44.583Z,100446.16
2023-05-14T23:42:11.145Z,100441.28
2023-05-14T23:44:37.714Z,100434.81
2023-05-14T23:47:05.465Z,100435.44
2023-05-14T23:49:32.153Z,100426.28
2023-05-14T23:51:58.739Z,100434.13
2023-05-14T23:54:25.415Z,100423.66
2023-05-14T23:56:52.557Z,100418.31
2023-05-14T23:59:19.124Z,100416.94
